sensor_id;sensor_type;location;lat;lon;timestamp;P1;durP1;ratioP1;P2;durP2;ratioP2
37151;SDS011;23046;50.112;8.952;2024-02-23T00:00:08;0.20;;;0.20;;
37151;SDS011;23046;50.112;8.952;2024-02-23T00:00:21;1.30;;;0.20;;
37151;SDS011;23046;50.112;8.952;2024-02-23T00:00:31;1.30;;;0.30;;
37151;SDS011;23046;50.112;8.952;2024-02-23T00:00:41;1.43;;;0.30;;
37151;SDS011;23046;50.112;8.952;2024-02-23T00:00:52;1.40;;;0.30;;
37151;SDS011;23046;50.112;8.952;2024-02-23T00:01:02;1.67;;;0.37;;
37151;SDS011;23046;50.112;8.952;2024-02-23T00:01:12;0.90;;;0.30;;
37151;SDS011;23046;50.112;8.952;2024-02-23T00:01:23;0.85;;;0.40;;
37151;SDS011;23046;50.112;8.952;2024-02-23T00:01:33;0.52;;;0.30;;
37151;SDS011;23046;50.112;8.952;2024-02-23T00:01:44;0.50;;;0.40;;
37151;SDS011;23046;50.112;8.952;2024-02-23T00:01:54;0.30;;;0.30;;
37151;SDS011;23046;50.112;8.952;2024-02-23T00:02:04;0.57;;;0.30;;
37151;SDS011;23046;50.112;8.952;2024-02-23T00:02:15;0.60;;;0.20;;
37151;SDS011;23046;50.112;8.952;2024-02-23T00:02:25;0.80;;;0.20;;
37151;SDS011;23046;50.112;8.952;2024-02-23T00:02:35;0.40;;;0.20;;
37151;SDS011;23046;50.112;8.952;2024-02-23T00:02:45;0.30;;;0.20;;
37151;SDS011;23046;50.112;8.952;2024-02-23T00:02:55;0.20;;;0.20;;
37151;SDS011;23046;50.112;8.952;2024-02-23T00:03:07;0.35;;;0.20;;
37151;SDS011;23046;50.112;8.952;2024-02-23T00:03:18;0.40;;;0.20;;
37151;SDS011;23046;50.112;8.952;2024-02-23T00:03:28;0.45;;;0.25;;
37151;SDS011;23046;50.112;8.952;2024-02-23T00:03:38;0.50;;;0.23;;
37151;SDS011;23046;50.112;8.952;2024-02-23T00:03:49;0.53;;;0.23;;
37151;SDS011;23046;50.112;8.952;2024-02-23T00:03:59;0.63;;;0.30;;
37151;SDS011;23046;50.112;8.952;2024-02-23T00:04:09;0.60;;;0.40;;
37151;SDS011;23046;50.112;8.952;2024-02-23T00:04:20;0.55;;;0.40;;
37151;SDS011;23046;50.112;8.952;2024-02-23T00:04:30;0.37;;;0.33;;
37151;SDS011;23046;50.112;8.952;2024-02-23T00:04:40;0.30;;;0.30;;
37151;SDS011;23046;50.112;8.952;2024-02-23T00:04:51;0.52;;;0.30;;
37151;SDS011;23046;50.112;8.952;2024-02-23T00:05:02;1.00;;;0.20;;
37151;SDS011;23046;50.112;8.952;2024-02-23T00:05:13;0.93;;;0.20;;
37151;SDS011;23046;50.112;8.952;2024-02-23T00:05:23;0.80;;;0.20;;
37151;SDS011;23046;50.112;8.952;2024-02-23T00:05:34;0.43;;;0.20;;
37151;SDS011;23046;50.112;8.952;2024-02-23T00:05:44;0.40;;;0.20;;
37151;SDS011;23046;50.112;8.952;2024-02-23T00:05:54;0.20;;;0.20;;
37151;SDS011;23046;50.112;8.952;2024-02-23T00:06:04;1.00;;;0.20;;
37151;SDS011;23046;50.112;8.952;2024-02-23T00:06:14;1.40;;;0.30;;
37151;SDS011;23046;50.112;8.952;2024-02-23T00:06:25;1.63;;;0.30;;
37151;SDS011;23046;50.112;8.952;2024-02-23T00:06:37;0.90;;;0.30;;
37151;SDS011;23046;50.112;8.952;2024-02-23T00:06:47;0.40;;;0.20;;
37151;SDS011;23046;50.112;8.952;2024-02-23T00:06:58;1.20;;;0.20;;
37151;SDS011;23046;50.112;8.952;2024-02-23T00:07:08;1.20;;;0.20;;
37151;SDS011;23046;50.112;8.952;2024-02-23T00:07:18;1.10;;;0.20;;
37151;SDS011;23046;50.112;8.952;2024-02-23T00:07:28;0.20;;;0.20;;
37151;SDS011;23046;50.112;8.952;2024-02-23T00:07:38;0.20;;;0.20;;
37151;SDS011;23046;50.112;8.952;2024-02-23T00:07:49;0.20;;;0.20;;
37151;SDS011;23046;50.112;8.952;2024-02-23T00:07:59;0.27;;;0.27;;
37151;SDS011;23046;50.112;8.952;2024-02-23T00:08:09;0.20;;;0.20;;
37151;SDS011;23046;50.112;8.952;2024-02-23T00:08:19;0.23;;;0.23;;
37151;SDS011;23046;50.112;8.952;2024-02-23T00:08:29;0.30;;;0.30;;
37151;SDS011;23046;50.112;8.952;2024-02-23T00:08:40;0.40;;;0.30;;
37151;SDS011;23046;50.112;8.952;2024-02-23T00:08:51;0.40;;;0.28;;
37151;SDS011;23046;50.112;8.952;2024-02-23T00:09:03;0.85;;;0.30;;
37151;SDS011;23046;50.112;8.952;2024-02-23T00:09:14;1.20;;;0.30;;
37151;SDS011;23046;50.112;8.952;2024-02-23T00:09:24;1.20;;;0.20;;
37151;SDS011;23046;50.112;8.952;2024-02-23T00:09:35;0.52;;;0.20;;
37151;SDS011;23046;50.112;8.952;2024-02-23T00:09:45;0.17;;;0.13;;
37151;SDS011;23046;50.112;8.952;2024-02-23T00:09:55;0.60;;;0.20;;
37151;SDS011;23046;50.112;8.952;2024-02-23T00:10:05;1.80;;;0.30;;
37151;SDS011;23046;50.112;8.952;2024-02-23T00:10:16;1.65;;;0.30;;
37151;SDS011;23046;50.112;8.952;2024-02-23T00:10:26;1.40;;;0.30;;
37151;SDS011;23046;50.112;8.952;2024-02-23T00:10:37;0.20;;;0.20;;
37151;SDS011;23046;50.112;8.952;2024-02-23T00:10:47;0.20;;;0.20;;
37151;SDS011;23046;50.112;8.952;2024-02-23T00:10:57;0.30;;;0.20;;
37151;SDS011;23046;50.112;8.952;2024-02-23T00:11:07;0.37;;;0.20;;
37151;SDS011;23046;50.112;8.952;2024-02-23T00:11:18;0.50;;;0.22;;
37151;SDS011;23046;50.112;8.952;2024-02-23T00:11:28;0.30;;;0.20;;
37151;SDS011;23046;50.112;8.952;2024-02-23T00:11:39;0.22;;;0.22;;
37151;SDS011;23046;50.112;8.952;2024-02-23T00:11:51;0.40;;;0.30;;
37151;SDS011;23046;50.112;8.952;2024-02-23T00:12:01;0.50;;;0.30;;
37151;SDS011;23046;50.112;8.952;2024-02-23T00:12:12;0.45;;;0.30;;
37151;SDS011;23046;50.112;8.952;2024-02-23T00:12:23;0.30;;;0.30;;
37151;SDS011;23046;50.112;8.952;2024-02-23T00:12:34;0.27;;;0.23;;
37151;SDS011;23046;50.112;8.952;2024-02-23T00:12:44;0.60;;;0.20;;
37151;SDS011;23046;50.112;8.952;2024-02-23T00:12:54;0.67;;;0.20;;
37151;SDS011;23046;50.112;8.952;2024-02-23T00:13:04;0.67;;;0.20;;
37151;SDS011;23046;50.112;8.952;2024-02-23T00:13:14;0.80;;;0.20;;
37151;SDS011;23046;50.112;8.952;2024-02-23T00:13:25;1.30;;;0.20;;
37151;SDS011;23046;50.112;8.952;2024-02-23T00:13:35;1.58;;;0.20;;
37151;SDS011;23046;50.112;8.952;2024-02-23T00:13:45;1.40;;;0.20;;
37151;SDS011;23046;50.112;8.952;2024-02-23T00:13:55;0.40;;;0.20;;
37151;SDS011;23046;50.112;8.952;2024-02-23T00:14:05;0.43;;;0.30;;
37151;SDS011;23046;50.112;8.952;2024-02-23T00:14:16;0.30;;;0.30;;
37151;SDS011;23046;50.112;8.952;2024-02-23T00:14:29;0.95;;;0.30;;
37151;SDS011;23046;50.112;8.952;2024-02-23T00:14:41;1.17;;;0.30;;
37151;SDS011;23046;50.112;8.952;2024-02-23T00:14:51;1.65;;;0.30;;
37151;SDS011;23046;50.112;8.952;2024-02-23T00:15:02;1.83;;;0.20;;
37151;SDS011;23046;50.112;8.952;2024-02-23T00:15:12;1.67;;;0.30;;
37151;SDS011;23046;50.112;8.952;2024-02-23T00:15:22;2.20;;;0.37;;
37151;SDS011;23046;50.112;8.952;2024-02-23T00:15:34;1.00;;;0.38;;
37151;SDS011;23046;50.112;8.952;2024-02-23T00:15:44;0.70;;;0.30;;
37151;SDS011;23046;50.112;8.952;2024-02-23T00:15:54;0.60;;;0.30;;
37151;SDS011;23046;50.112;8.952;2024-02-23T00:16:05;0.60;;;0.30;;
37151;SDS011;23046;50.112;8.952;2024-02-23T00:16:15;0.60;;;0.25;;
37151;SDS011;23046;50.112;8.952;2024-02-23T00:16:25;0.27;;;0.20;;
37151;SDS011;23046;50.112;8.952;2024-02-23T00:16:39;0.55;;;0.20;;
37151;SDS011;23046;50.112;8.952;2024-02-23T00:16:51;0.60;;;0.20;;
37151;SDS011;23046;50.112;8.952;2024-02-23T00:17:01;0.20;;;0.20;;
37151;SDS011;23046;50.112;8.952;2024-02-23T00:17:12;0.87;;;0.20;;
37151;SDS011;23046;50.112;8.952;2024-02-23T00:17:22;1.27;;;0.20;;
37151;SDS011;23046;50.112;8.952;2024-02-23T00:17:33;1.50;;;0.20;;
37151;SDS011;23046;50.112;8.952;2024-02-23T00:17:43;1.60;;;0.20;;
37151;SDS011;23046;50.112;8.952;2024-02-23T00:17:53;1.40;;;0.30;;
37151;SDS011;23046;50.112;8.952;2024-02-23T00:18:04;1.43;;;0.30;;
37151;SDS011;23046;50.112;8.952;2024-02-23T00:18:14;0.40;;;0.30;;
37151;SDS011;23046;50.112;8.952;2024-02-23T00:18:26;1.20;;;0.30;;
37151;SDS011;23046;50.112;8.952;2024-02-23T00:18:36;1.50;;;0.30;;
37151;SDS011;23046;50.112;8.952;2024-02-23T00:18:46;1.50;;;0.30;;
37151;SDS011;23046;50.112;8.952;2024-02-23T00:18:56;0.70;;;0.30;;
37151;SDS011;23046;50.112;8.952;2024-02-23T00:19:10;0.80;;;0.20;;
37151;SDS011;23046;50.112;8.952;2024-02-23T00:19:20;0.88;;;0.28;;
37151;SDS011;23046;50.112;8.952;2024-02-23T00:19:31;0.73;;;0.40;;
37151;SDS011;23046;50.112;8.952;2024-02-23T00:19:41;0.73;;;0.50;;
37151;SDS011;23046;50.112;8.952;2024-02-23T00:19:52;0.70;;;0.40;;
37151;SDS011;23046;50.112;8.952;2024-02-23T00:20:03;0.43;;;0.30;;
37151;SDS011;23046;50.112;8.952;2024-02-23T00:20:13;0.45;;;0.30;;
37151;SDS011;23046;50.112;8.952;2024-02-23T00:20:25;0.90;;;0.30;;
37151;SDS011;23046;50.112;8.952;2024-02-23T00:20:35;0.80;;;0.30;;
37151;SDS011;23046;50.112;8.952;2024-02-23T00:20:46;0.70;;;0.30;;
37151;SDS011;23046;50.112;8.952;2024-02-23T00:20:56;0.30;;;0.30;;
37151;SDS011;23046;50.112;8.952;2024-02-23T00:21:06;0.43;;;0.20;;
37151;SDS011;23046;50.112;8.952;2024-02-23T00:21:17;0.60;;;0.20;;
37151;SDS011;23046;50.112;8.952;2024-02-23T00:21:27;0.40;;;0.20;;
37151;SDS011;23046;50.112;8.952;2024-02-23T00:21:37;0.80;;;0.20;;
37151;SDS011;23046;50.112;8.952;2024-02-23T00:21:48;0.70;;;0.25;;
37151;SDS011;23046;50.112;8.952;2024-02-23T00:22:00;0.70;;;0.30;;
37151;SDS011;23046;50.112;8.952;2024-02-23T00:22:10;0.30;;;0.30;;
37151;SDS011;23046;50.112;8.952;2024-02-23T00:22:21;0.43;;;0.30;;
37151;SDS011;23046;50.112;8.952;2024-02-23T00:22:32;0.50;;;0.30;;
37151;SDS011;23046;50.112;8.952;2024-02-23T00:22:43;0.40;;;0.40;;
37151;SDS011;23046;50.112;8.952;2024-02-23T00:22:54;1.20;;;0.30;;
37151;SDS011;23046;50.112;8.952;2024-02-23T00:23:04;1.30;;;0.30;;
37151;SDS011;23046;50.112;8.952;2024-02-23T00:23:14;1.20;;;0.30;;
37151;SDS011;23046;50.112;8.952;2024-02-23T00:23:24;0.90;;;0.30;;
37151;SDS011;23046;50.112;8.952;2024-02-23T00:23:35;1.27;;;0.40;;
37151;SDS011;23046;50.112;8.952;2024-02-23T00:23:45;1.93;;;0.40;;
37151;SDS011;23046;50.112;8.952;2024-02-23T00:23:55;1.20;;;0.40;;
37151;SDS011;23046;50.112;8.952;2024-02-23T00:24:06;0.90;;;0.30;;
37151;SDS011;23046;50.112;8.952;2024-02-23T00:24:16;0.40;;;0.30;;
37151;SDS011;23046;50.112;8.952;2024-02-23T00:24:26;0.60;;;0.30;;
37151;SDS011;23046;50.112;8.952;2024-02-23T00:24:36;1.43;;;0.30;;
37151;SDS011;23046;50.112;8.952;2024-02-23T00:24:47;1.47;;;0.30;;
37151;SDS011;23046;50.112;8.952;2024-02-23T00:24:57;1.50;;;0.30;;
37151;SDS011;23046;50.112;8.952;2024-02-23T00:25:07;0.57;;;0.20;;
37151;SDS011;23046;50.112;8.952;2024-02-23T00:25:17;0.85;;;0.28;;
37151;SDS011;23046;50.112;8.952;2024-02-23T00:25:29;0.63;;;0.40;;
37151;SDS011;23046;50.112;8.952;2024-02-23T00:25:39;0.80;;;0.40;;
37151;SDS011;23046;50.112;8.952;2024-02-23T00:25:49;0.77;;;0.40;;
37151;SDS011;23046;50.112;8.952;2024-02-23T00:25:59;0.90;;;0.30;;
37151;SDS011;23046;50.112;8.952;2024-02-23T00:26:12;0.60;;;0.30;;
37151;SDS011;23046;50.112;8.952;2024-02-23T00:26:23;1.30;;;0.45;;
37151;SDS011;23046;50.112;8.952;2024-02-23T00:26:33;1.40;;;0.50;;
37151;SDS011;23046;50.112;8.952;2024-02-23T00:26:43;1.17;;;0.50;;
37151;SDS011;23046;50.112;8.952;2024-02-23T00:26:54;0.35;;;0.35;;
37151;SDS011;23046;50.112;8.952;2024-02-23T00:27:04;0.30;;;0.30;;
37151;SDS011;23046;50.112;8.952;2024-02-23T00:27:14;0.20;;;0.20;;
37151;SDS011;23046;50.112;8.952;2024-02-23T00:27:25;0.20;;;0.20;;
37151;SDS011;23046;50.112;8.952;2024-02-23T00:27:35;1.13;;;0.27;;
37151;SDS011;23046;50.112;8.952;2024-02-23T00:27:45;1.40;;;0.30;;
37151;SDS011;23046;50.112;8.952;2024-02-23T00:27:56;1.35;;;0.30;;
37151;SDS011;23046;50.112;8.952;2024-02-23T00:28:07;0.80;;;0.20;;
37151;SDS011;23046;50.112;8.952;2024-02-23T00:28:17;0.57;;;0.20;;
37151;SDS011;23046;50.112;8.952;2024-02-23T00:28:28;0.52;;;0.20;;
37151;SDS011;23046;50.112;8.952;2024-02-23T00:28:38;0.37;;;0.23;;
37151;SDS011;23046;50.112;8.952;2024-02-23T00:28:48;0.30;;;0.30;;
37151;SDS011;23046;50.112;8.952;2024-02-23T00:28:58;0.50;;;0.40;;
37151;SDS011;23046;50.112;8.952;2024-02-23T00:29:09;1.00;;;0.40;;
37151;SDS011;23046;50.112;8.952;2024-02-23T00:29:19;1.30;;;0.40;;
37151;SDS011;23046;50.112;8.952;2024-02-23T00:29:29;1.10;;;0.30;;
37151;SDS011;23046;50.112;8.952;2024-02-23T00:29:39;0.50;;;0.20;;
37151;SDS011;23046;50.112;8.952;2024-02-23T00:29:50;0.20;;;0.20;;
37151;SDS011;23046;50.112;8.952;2024-02-23T00:30:00;1.00;;;0.20;;
37151;SDS011;23046;50.112;8.952;2024-02-23T00:30:11;0.95;;;0.25;;
37151;SDS011;23046;50.112;8.952;2024-02-23T00:30:21;1.77;;;0.30;;
37151;SDS011;23046;50.112;8.952;2024-02-23T00:30:31;1.07;;;0.30;;
37151;SDS011;23046;50.112;8.952;2024-02-23T00:30:41;1.27;;;0.33;;
37151;SDS011;23046;50.112;8.952;2024-02-23T00:30:52;0.63;;;0.40;;
37151;SDS011;23046;50.112;8.952;2024-02-23T00:31:03;1.63;;;0.40;;
37151;SDS011;23046;50.112;8.952;2024-02-23T00:31:13;1.63;;;0.30;;
37151;SDS011;23046;50.112;8.952;2024-02-23T00:31:23;2.30;;;0.30;;
37151;SDS011;23046;50.112;8.952;2024-02-23T00:31:33;1.13;;;0.30;;
37151;SDS011;23046;50.112;8.952;2024-02-23T00:31:43;1.77;;;0.30;;
37151;SDS011;23046;50.112;8.952;2024-02-23T00:31:56;0.90;;;0.20;;
37151;SDS011;23046;50.112;8.952;2024-02-23T00:32:07;0.38;;;0.20;;
37151;SDS011;23046;50.112;8.952;2024-02-23T00:32:17;0.70;;;0.53;;
37151;SDS011;23046;50.112;8.952;2024-02-23T00:32:27;0.80;;;0.57;;
37151;SDS011;23046;50.112;8.952;2024-02-23T00:32:37;0.90;;;0.60;;
37151;SDS011;23046;50.112;8.952;2024-02-23T00:32:47;0.40;;;0.37;;
37151;SDS011;23046;50.112;8.952;2024-02-23T00:32:58;0.45;;;0.40;;
37151;SDS011;23046;50.112;8.952;2024-02-23T00:33:08;0.40;;;0.40;;
37151;SDS011;23046;50.112;8.952;2024-02-23T00:33:20;0.30;;;0.28;;
37151;SDS011;23046;50.112;8.952;2024-02-23T00:33:30;0.90;;;0.30;;
37151;SDS011;23046;50.112;8.952;2024-02-23T00:33:40;1.40;;;0.37;;
37151;SDS011;23046;50.112;8.952;2024-02-23T00:33:52;1.50;;;0.30;;
37151;SDS011;23046;50.112;8.952;2024-02-23T00:34:02;0.50;;;0.20;;
37151;SDS011;23046;50.112;8.952;2024-02-23T00:34:13;0.50;;;0.20;;
37151;SDS011;23046;50.112;8.952;2024-02-23T00:34:24;0.77;;;0.25;;
37151;SDS011;23046;50.112;8.952;2024-02-23T00:34:34;1.00;;;0.30;;
37151;SDS011;23046;50.112;8.952;2024-02-23T00:34:44;1.37;;;0.27;;
37151;SDS011;23046;50.112;8.952;2024-02-23T00:34:56;1.20;;;0.30;;
37151;SDS011;23046;50.112;8.952;2024-02-23T00:35:07;1.40;;;0.40;;
37151;SDS011;23046;50.112;8.952;2024-02-23T00:35:17;1.00;;;0.40;;
37151;SDS011;23046;50.112;8.952;2024-02-23T00:35:27;0.73;;;0.30;;
37151;SDS011;23046;50.112;8.952;2024-02-23T00:35:43;0.40;;;0.28;;
37151;SDS011;23046;50.112;8.952;2024-02-23T00:35:53;0.35;;;0.30;;
37151;SDS011;23046;50.112;8.952;2024-02-23T00:36:03;1.00;;;0.40;;
37151;SDS011;23046;50.112;8.952;2024-02-23T00:36:14;1.03;;;0.40;;
37151;SDS011;23046;50.112;8.952;2024-02-23T00:36:24;1.30;;;0.32;;
37151;SDS011;23046;50.112;8.952;2024-02-23T00:36:34;0.90;;;0.20;;
37151;SDS011;23046;50.112;8.952;2024-02-23T00:36:44;0.90;;;0.30;;
37151;SDS011;23046;50.112;8.952;2024-02-23T00:36:54;0.47;;;0.43;;
37151;SDS011;23046;50.112;8.952;2024-02-23T00:37:05;0.40;;;0.40;;
37151;SDS011;23046;50.112;8.952;2024-02-23T00:37:15;0.40;;;0.40;;
37151;SDS011;23046;50.112;8.952;2024-02-23T00:37:25;0.80;;;0.40;;
37151;SDS011;23046;50.112;8.952;2024-02-23T00:37:35;0.80;;;0.33;;
37151;SDS011;23046;50.112;8.952;2024-02-23T00:37:46;0.73;;;0.30;;
37151;SDS011;23046;50.112;8.952;2024-02-23T00:37:56;0.50;;;0.20;;
37151;SDS011;23046;50.112;8.952;2024-02-23T00:38:07;0.60;;;0.30;;
37151;SDS011;23046;50.112;8.952;2024-02-23T00:38:17;1.05;;;0.30;;
37151;SDS011;23046;50.112;8.952;2024-02-23T00:38:27;1.50;;;0.27;;
37151;SDS011;23046;50.112;8.952;2024-02-23T00:38:38;1.50;;;0.30;;
37151;SDS011;23046;50.112;8.952;2024-02-23T00:38:48;1.30;;;0.40;;
37151;SDS011;23046;50.112;8.952;2024-02-23T00:38:58;0.80;;;0.50;;
37151;SDS011;23046;50.112;8.952;2024-02-23T00:39:08;0.87;;;0.60;;
37151;SDS011;23046;50.112;8.952;2024-02-23T00:39:18;0.60;;;0.60;;
37151;SDS011;23046;50.112;8.952;2024-02-23T00:39:29;0.50;;;0.50;;
37151;SDS011;23046;50.112;8.952;2024-02-23T00:39:39;0.40;;;0.30;;
37151;SDS011;23046;50.112;8.952;2024-02-23T00:39:49;0.30;;;0.23;;
37151;SDS011;23046;50.112;8.952;2024-02-23T00:39:59;0.67;;;0.27;;
37151;SDS011;23046;50.112;8.952;2024-02-23T00:40:10;0.77;;;0.30;;
37151;SDS011;23046;50.112;8.952;2024-02-23T00:40:21;0.90;;;0.30;;
37151;SDS011;23046;50.112;8.952;2024-02-23T00:40:33;1.10;;;0.30;;
37151;SDS011;23046;50.112;8.952;2024-02-23T00:40:43;1.00;;;0.20;;
37151;SDS011;23046;50.112;8.952;2024-02-23T00:40:54;0.30;;;0.20;;
37151;SDS011;23046;50.112;8.952;2024-02-23T00:41:04;0.30;;;0.30;;
37151;SDS011;23046;50.112;8.952;2024-02-23T00:41:14;0.50;;;0.38;;
37151;SDS011;23046;50.112;8.952;2024-02-23T00:41:27;1.08;;;0.43;;
37151;SDS011;23046;50.112;8.952;2024-02-23T00:41:37;1.03;;;0.40;;
37151;SDS011;23046;50.112;8.952;2024-02-23T00:41:48;0.87;;;0.30;;
37151;SDS011;23046;50.112;8.952;2024-02-23T00:41:58;0.20;;;0.20;;
37151;SDS011;23046;50.112;8.952;2024-02-23T00:42:08;0.60;;;0.30;;
37151;SDS011;23046;50.112;8.952;2024-02-23T00:42:18;0.70;;;0.30;;
37151;SDS011;23046;50.112;8.952;2024-02-23T00:42:30;0.85;;;0.35;;
37151;SDS011;23046;50.112;8.952;2024-02-23T00:42:41;0.50;;;0.30;;
37151;SDS011;23046;50.112;8.952;2024-02-23T00:42:51;0.47;;;0.30;;
37151;SDS011;23046;50.112;8.952;2024-02-23T00:43:01;0.50;;;0.30;;
37151;SDS011;23046;50.112;8.952;2024-02-23T00:43:13;0.70;;;0.30;;
37151;SDS011;23046;50.112;8.952;2024-02-23T00:43:23;0.80;;;0.30;;
37151;SDS011;23046;50.112;8.952;2024-02-23T00:43:39;0.60;;;0.30;;
37151;SDS011;23046;50.112;8.952;2024-02-23T00:43:50;0.60;;;0.30;;
37151;SDS011;23046;50.112;8.952;2024-02-23T00:44:00;0.60;;;0.30;;
37151;SDS011;23046;50.112;8.952;2024-02-23T00:44:10;0.60;;;0.30;;
37151;SDS011;23046;50.112;8.952;2024-02-23T00:44:21;1.00;;;0.40;;
37151;SDS011;23046;50.112;8.952;2024-02-23T00:44:32;1.00;;;0.37;;
37151;SDS011;23046;50.112;8.952;2024-02-23T00:44:42;0.73;;;0.38;;
37151;SDS011;23046;50.112;8.952;2024-02-23T00:44:52;0.50;;;0.30;;
37151;SDS011;23046;50.112;8.952;2024-02-23T00:45:03;0.30;;;0.30;;
37151;SDS011;23046;50.112;8.952;2024-02-23T00:45:13;0.40;;;0.30;;
37151;SDS011;23046;50.112;8.952;2024-02-23T00:45:23;0.43;;;0.40;;
37151;SDS011;23046;50.112;8.952;2024-02-23T00:45:33;0.38;;;0.30;;
37151;SDS011;23046;50.112;8.952;2024-02-23T00:45:43;0.40;;;0.30;;
37151;SDS011;23046;50.112;8.952;2024-02-23T00:45:54;0.30;;;0.20;;
37151;SDS011;23046;50.112;8.952;2024-02-23T00:46:04;1.10;;;0.20;;
37151;SDS011;23046;50.112;8.952;2024-02-23T00:46:14;2.50;;;0.20;;
37151;SDS011;23046;50.112;8.952;2024-02-23T00:46:25;2.73;;;0.33;;
37151;SDS011;23046;50.112;8.952;2024-02-23T00:46:35;2.20;;;0.40;;
37151;SDS011;23046;50.112;8.952;2024-02-23T00:46:45;0.80;;;0.40;;
37151;SDS011;23046;50.112;8.952;2024-02-23T00:46:55;1.10;;;0.37;;
37151;SDS011;23046;50.112;8.952;2024-02-23T00:47:07;1.50;;;0.32;;
37151;SDS011;23046;50.112;8.952;2024-02-23T00:47:18;1.73;;;0.40;;
37151;SDS011;23046;50.112;8.952;2024-02-23T00:47:28;1.50;;;0.40;;
37151;SDS011;23046;50.112;8.952;2024-02-23T00:47:38;0.80;;;0.40;;
37151;SDS011;23046;50.112;8.952;2024-02-23T00:47:48;0.98;;;0.40;;
37151;SDS011;23046;50.112;8.952;2024-02-23T00:47:59;0.90;;;0.40;;
37151;SDS011;23046;50.112;8.952;2024-02-23T00:48:09;0.90;;;0.30;;
37151;SDS011;23046;50.112;8.952;2024-02-23T00:48:19;0.33;;;0.20;;
37151;SDS011;23046;50.112;8.952;2024-02-23T00:48:29;0.20;;;0.20;;
37151;SDS011;23046;50.112;8.952;2024-02-23T00:48:40;0.25;;;0.20;;
37151;SDS011;23046;50.112;8.952;2024-02-23T00:48:53;0.90;;;0.20;;
37151;SDS011;23046;50.112;8.952;2024-02-23T00:49:06;1.25;;;0.30;;
37151;SDS011;23046;50.112;8.952;2024-02-23T00:49:17;0.70;;;0.37;;
37151;SDS011;23046;50.112;8.952;2024-02-23T00:49:27;0.40;;;0.33;;
37151;SDS011;23046;50.112;8.952;2024-02-23T00:49:38;0.68;;;0.30;;
37151;SDS011;23046;50.112;8.952;2024-02-23T00:49:48;0.63;;;0.30;;
37151;SDS011;23046;50.112;8.952;2024-02-23T00:49:58;1.83;;;0.30;;
37151;SDS011;23046;50.112;8.952;2024-02-23T00:50:09;2.20;;;0.40;;
37151;SDS011;23046;50.112;8.952;2024-02-23T00:50:19;2.20;;;0.30;;
37151;SDS011;23046;50.112;8.952;2024-02-23T00:50:29;1.20;;;0.30;;
37151;SDS011;23046;50.112;8.952;2024-02-23T00:50:39;0.90;;;0.20;;
37151;SDS011;23046;50.112;8.952;2024-02-23T00:50:49;1.55;;;0.25;;
37151;SDS011;23046;50.112;8.952;2024-02-23T00:51:01;1.50;;;0.20;;
37151;SDS011;23046;50.112;8.952;2024-02-23T00:51:12;1.85;;;0.20;;
37151;SDS011;23046;50.112;8.952;2024-02-23T00:51:22;2.90;;;0.20;;
37151;SDS011;23046;50.112;8.952;2024-02-23T00:51:33;2.60;;;0.22;;
37151;SDS011;23046;50.112;8.952;2024-02-23T00:51:43;1.73;;;0.20;;
37151;SDS011;23046;50.112;8.952;2024-02-23T00:51:53;0.20;;;0.20;;
37151;SDS011;23046;50.112;8.952;2024-02-23T00:52:03;0.20;;;0.20;;
37151;SDS011;23046;50.112;8.952;2024-02-23T00:52:14;0.43;;;0.30;;
37151;SDS011;23046;50.112;8.952;2024-02-23T00:52:24;0.80;;;0.33;;
37151;SDS011;23046;50.112;8.952;2024-02-23T00:52:35;0.90;;;0.38;;
37151;SDS011;23046;50.112;8.952;2024-02-23T00:52:45;1.20;;;0.30;;
37151;SDS011;23046;50.112;8.952;2024-02-23T00:52:56;0.80;;;0.30;;
37151;SDS011;23046;50.112;8.952;2024-02-23T00:53:06;0.43;;;0.27;;
37151;SDS011;23046;50.112;8.952;2024-02-23T00:53:16;0.20;;;0.20;;
37151;SDS011;23046;50.112;8.952;2024-02-23T00:53:27;1.30;;;0.20;;
37151;SDS011;23046;50.112;8.952;2024-02-23T00:53:38;1.50;;;0.20;;
37151;SDS011;23046;50.112;8.952;2024-02-23T00:53:48;1.30;;;0.25;;
37151;SDS011;23046;50.112;8.952;2024-02-23T00:53:58;0.60;;;0.20;;
37151;SDS011;23046;50.112;8.952;2024-02-23T00:54:08;0.67;;;0.20;;
37151;SDS011;23046;50.112;8.952;2024-02-23T00:54:18;0.77;;;0.17;;
37151;SDS011;23046;50.112;8.952;2024-02-23T00:54:28;0.80;;;0.20;;
37151;SDS011;23046;50.112;8.952;2024-02-23T00:54:39;0.88;;;0.35;;
37151;SDS011;23046;50.112;8.952;2024-02-23T00:54:49;1.00;;;0.40;;
37151;SDS011;23046;50.112;8.952;2024-02-23T00:54:59;0.90;;;0.40;;
37151;SDS011;23046;50.112;8.952;2024-02-23T00:55:10;0.80;;;0.20;;
37151;SDS011;23046;50.112;8.952;2024-02-23T00:55:20;1.30;;;0.20;;
37151;SDS011;23046;50.112;8.952;2024-02-23T00:55:33;2.40;;;0.40;;
37151;SDS011;23046;50.112;8.952;2024-02-23T00:55:43;2.70;;;0.40;;
37151;SDS011;23046;50.112;8.952;2024-02-23T00:55:53;2.67;;;0.53;;
37151;SDS011;23046;50.112;8.952;2024-02-23T00:56:04;0.80;;;0.40;;
37151;SDS011;23046;50.112;8.952;2024-02-23T00:56:14;0.97;;;0.40;;
37151;SDS011;23046;50.112;8.952;2024-02-23T00:56:25;1.00;;;0.27;;
37151;SDS011;23046;50.112;8.952;2024-02-23T00:56:35;1.08;;;0.30;;
37151;SDS011;23046;50.112;8.952;2024-02-23T00:56:45;0.87;;;0.43;;
37151;SDS011;23046;50.112;8.952;2024-02-23T00:56:55;0.73;;;0.40;;
37151;SDS011;23046;50.112;8.952;2024-02-23T00:57:06;0.77;;;0.40;;
37151;SDS011;23046;50.112;8.952;2024-02-23T00:57:16;0.40;;;0.28;;
37151;SDS011;23046;50.112;8.952;2024-02-23T00:57:28;0.38;;;0.30;;
37151;SDS011;23046;50.112;8.952;2024-02-23T00:57:39;0.30;;;0.30;;
37151;SDS011;23046;50.112;8.952;2024-02-23T00:57:49;0.30;;;0.20;;
37151;SDS011;23046;50.112;8.952;2024-02-23T00:58:00;0.50;;;0.30;;
37151;SDS011;23046;50.112;8.952;2024-02-23T00:58:10;1.38;;;0.40;;
37151;SDS011;23046;50.112;8.952;2024-02-23T00:58:20;1.70;;;0.40;;
37151;SDS011;23046;50.112;8.952;2024-02-23T00:58:30;1.20;;;0.30;;
37151;SDS011;23046;50.112;8.952;2024-02-23T00:58:40;0.57;;;0.33;;
37151;SDS011;23046;50.112;8.952;2024-02-23T00:58:51;0.30;;;0.30;;
37151;SDS011;23046;50.112;8.952;2024-02-23T00:59:01;0.90;;;0.30;;
37151;SDS011;23046;50.112;8.952;2024-02-23T00:59:11;0.85;;;0.25;;
37151;SDS011;23046;50.112;8.952;2024-02-23T00:59:21;0.90;;;0.20;;
37151;SDS011;23046;50.112;8.952;2024-02-23T00:59:32;0.30;;;0.20;;
37151;SDS011;23046;50.112;8.952;2024-02-23T00:59:42;0.35;;;0.22;;
37151;SDS011;23046;50.112;8.952;2024-02-23T00:59:52;0.30;;;0.20;;
37151;SDS011;23046;50.112;8.952;2024-02-23T01:00:03;0.43;;;0.30;;
37151;SDS011;23046;50.112;8.952;2024-02-23T01:00:15;0.30;;;0.30;;
37151;SDS011;23046;50.112;8.952;2024-02-23T01:00:25;0.30;;;0.30;;
37151;SDS011;23046;50.112;8.952;2024-02-23T01:00:35;0.33;;;0.27;;
37151;SDS011;23046;50.112;8.952;2024-02-23T01:00:45;0.60;;;0.33;;
37151;SDS011;23046;50.112;8.952;2024-02-23T01:00:56;0.70;;;0.30;;
37151;SDS011;23046;50.112;8.952;2024-02-23T01:01:06;0.53;;;0.27;;
37151;SDS011;23046;50.112;8.952;2024-02-23T01:01:16;0.63;;;0.25;;
37151;SDS011;23046;50.112;8.952;2024-02-23T01:01:26;0.60;;;0.30;;
37151;SDS011;23046;50.112;8.952;2024-02-23T01:01:38;1.90;;;0.30;;
37151;SDS011;23046;50.112;8.952;2024-02-23T01:01:48;1.60;;;0.20;;
37151;SDS011;23046;50.112;8.952;2024-02-23T01:01:58;1.57;;;0.20;;
37151;SDS011;23046;50.112;8.952;2024-02-23T01:02:08;0.40;;;0.20;;
37151;SDS011;23046;50.112;8.952;2024-02-23T01:02:19;0.50;;;0.20;;
37151;SDS011;23046;50.112;8.952;2024-02-23T01:02:29;1.37;;;0.30;;
37151;SDS011;23046;50.112;8.952;2024-02-23T01:02:39;1.30;;;0.37;;
37151;SDS011;23046;50.112;8.952;2024-02-23T01:02:50;1.57;;;0.40;;
37151;SDS011;23046;50.112;8.952;2024-02-23T01:03:00;1.00;;;0.32;;
37151;SDS011;23046;50.112;8.952;2024-02-23T01:03:10;0.70;;;0.30;;
37151;SDS011;23046;50.112;8.952;2024-02-23T01:03:21;0.40;;;0.30;;
37151;SDS011;23046;50.112;8.952;2024-02-23T01:03:31;0.60;;;0.20;;